sensor_id;sensor_type;location;lat;lon;timestamp;P1;durP1;ratioP1;P2;durP2;ratioP2
22965;SDS011;11649;48.090;9.754;2022-10-16T00:02:22;6.75;;;3.50;;
22965;SDS011;11649;48.090;9.754;2022-10-16T00:04:49;7.20;;;3.30;;
22965;SDS011;11649;48.090;9.754;2022-10-16T00:07:16;7.75;;;3.20;;
22965;SDS011;11649;48.090;9.754;2022-10-16T00:09:42;10.00;;;3.35;;
22965;SDS011;11649;48.090;9.754;2022-10-16T00:12:09;4.53;;;3.30;;
22965;SDS011;11649;48.090;9.754;2022-10-16T00:14:36;6.68;;;2.80;;
22965;SDS011;11649;48.090;9.754;2022-10-16T00:17:03;6.05;;;3.40;;
22965;SDS011;11649;48.090;9.754;2022-10-16T00:19:30;5.82;;;3.20;;
22965;SDS011;11649;48.090;9.754;2022-10-16T00:21:56;4.28;;;3.03;;
22965;SDS011;11649;48.090;9.754;2022-10-16T00:24:23;4.28;;;2.75;;
22965;SDS011;11649;48.090;9.754;2022-10-16T00:26:50;6.78;;;2.90;;
22965;SDS011;11649;48.090;9.754;2022-10-16T00:29:17;7.80;;;3.17;;
22965;SDS011;11649;48.090;9.754;2022-10-16T00:31:43;7.85;;;3.30;;
22965;SDS011;11649;48.090;9.754;2022-10-16T00:34:10;5.25;;;3.67;;
22965;SDS011;11649;48.090;9.754;2022-10-16T00:36:37;4.75;;;3.40;;
22965;SDS011;11649;48.090;9.754;2022-10-16T00:39:04;6.05;;;3.20;;
22965;SDS011;11649;48.090;9.754;2022-10-16T00:41:31;5.75;;;3.08;;
22965;SDS011;11649;48.090;9.754;2022-10-16T00:44:00;4.63;;;3.05;;
22965;SDS011;11649;48.090;9.754;2022-10-16T00:51:36;13.43;;;3.28;;
22965;SDS011;11649;48.090;9.754;2022-10-16T00:54:06;4.63;;;2.92;;
22965;SDS011;11649;48.090;9.754;2022-10-16T00:56:39;4.53;;;2.80;;
22965;SDS011;11649;48.090;9.754;2022-10-16T00:59:10;10.73;;;3.88;;
22965;SDS011;11649;48.090;9.754;2022-10-16T01:01:45;16.40;;;3.42;;
22965;SDS011;11649;48.090;9.754;2022-10-16T01:04:12;19.08;;;3.88;;
22965;SDS011;11649;48.090;9.754;2022-10-16T01:09:31;11.13;;;3.85;;
22965;SDS011;11649;48.090;9.754;2022-10-16T01:17:57;7.35;;;2.88;;
22965;SDS011;11649;48.090;9.754;2022-10-16T01:20:31;6.95;;;4.95;;
22965;SDS011;11649;48.090;9.754;2022-10-16T01:23:14;7.50;;;4.57;;
22965;SDS011;11649;48.090;9.754;2022-10-16T01:28:51;8.18;;;3.28;;
22965;SDS011;11649;48.090;9.754;2022-10-16T01:31:25;4.70;;;3.00;;
22965;SDS011;11649;48.090;9.754;2022-10-16T01:34:18;4.95;;;2.80;;
22965;SDS011;11649;48.090;9.754;2022-10-16T01:37:15;10.65;;;3.08;;
22965;SDS011;11649;48.090;9.754;2022-10-16T01:39:53;13.95;;;3.38;;
22965;SDS011;11649;48.090;9.754;2022-10-16T01:42:24;10.45;;;3.00;;
22965;SDS011;11649;48.090;9.754;2022-10-16T01:45:00;8.75;;;3.15;;
22965;SDS011;11649;48.090;9.754;2022-10-16T01:47:29;7.47;;;3.05;;
22965;SDS011;11649;48.090;9.754;2022-10-16T01:49:57;8.20;;;3.53;;
22965;SDS011;11649;48.090;9.754;2022-10-16T01:52:26;8.10;;;3.72;;
22965;SDS011;11649;48.090;9.754;2022-10-16T01:54:55;6.97;;;3.92;;
22965;SDS011;11649;48.090;9.754;2022-10-16T01:57:24;7.50;;;3.63;;
22965;SDS011;11649;48.090;9.754;2022-10-16T01:59:53;5.88;;;3.75;;
22965;SDS011;11649;48.090;9.754;2022-10-16T02:02:23;6.45;;;3.78;;
22965;SDS011;11649;48.090;9.754;2022-10-16T02:04:57;12.65;;;3.75;;
22965;SDS011;11649;48.090;9.754;2022-10-16T02:07:27;4.72;;;2.53;;
22965;SDS011;11649;48.090;9.754;2022-10-16T02:09:54;5.72;;;2.50;;
22965;SDS011;11649;48.090;9.754;2022-10-16T02:12:29;5.10;;;2.47;;
22965;SDS011;11649;48.090;9.754;2022-10-16T02:14:59;5.70;;;2.53;;
22965;SDS011;11649;48.090;9.754;2022-10-16T02:17:26;5.38;;;2.92;;
22965;SDS011;11649;48.090;9.754;2022-10-16T02:19:53;6.85;;;3.00;;
22965;SDS011;11649;48.090;9.754;2022-10-16T02:22:43;7.53;;;2.90;;
22965;SDS011;11649;48.090;9.754;2022-10-16T02:25:24;3.92;;;2.70;;
22965;SDS011;11649;48.090;9.754;2022-10-16T02:27:55;4.00;;;2.95;;
22965;SDS011;11649;48.090;9.754;2022-10-16T02:30:35;4.53;;;3.45;;
22965;SDS011;11649;48.090;9.754;2022-10-16T02:33:09;7.63;;;3.78;;
22965;SDS011;11649;48.090;9.754;2022-10-16T02:35:39;7.93;;;3.47;;
22965;SDS011;11649;48.090;9.754;2022-10-16T02:38:07;4.03;;;2.92;;
22965;SDS011;11649;48.090;9.754;2022-10-16T02:40:40;3.90;;;3.15;;
22965;SDS011;11649;48.090;9.754;2022-10-16T02:43:07;5.72;;;3.13;;
22965;SDS011;11649;48.090;9.754;2022-10-16T02:45:34;3.42;;;2.65;;
22965;SDS011;11649;48.090;9.754;2022-10-16T02:48:01;3.45;;;2.72;;
22965;SDS011;11649;48.090;9.754;2022-10-16T02:50:28;5.60;;;3.53;;
22965;SDS011;11649;48.090;9.754;2022-10-16T02:52:55;7.60;;;2.70;;
22965;SDS011;11649;48.090;9.754;2022-10-16T02:55:22;4.47;;;2.70;;
22965;SDS011;11649;48.090;9.754;2022-10-16T02:57:49;3.80;;;2.85;;
22965;SDS011;11649;48.090;9.754;2022-10-16T03:00:16;4.40;;;3.03;;
22965;SDS011;11649;48.090;9.754;2022-10-16T03:02:43;3.88;;;2.90;;
22965;SDS011;11649;48.090;9.754;2022-10-16T03:05:10;3.97;;;3.15;;
22965;SDS011;11649;48.090;9.754;2022-10-16T03:07:37;3.38;;;2.85;;
22965;SDS011;11649;48.090;9.754;2022-10-16T03:10:05;15.90;;;3.50;;
22965;SDS011;11649;48.090;9.754;2022-10-16T03:12:32;9.88;;;3.20;;
22965;SDS011;11649;48.090;9.754;2022-10-16T03:14:59;6.50;;;3.10;;
22965;SDS011;11649;48.090;9.754;2022-10-16T03:17:26;8.35;;;2.78;;
22965;SDS011;11649;48.090;9.754;2022-10-16T03:19:54;11.65;;;3.40;;
22965;SDS011;11649;48.090;9.754;2022-10-16T03:22:21;6.25;;;3.03;;
22965;SDS011;11649;48.090;9.754;2022-10-16T03:24:47;8.82;;;3.00;;
22965;SDS011;11649;48.090;9.754;2022-10-16T03:27:14;9.95;;;2.95;;
22965;SDS011;11649;48.090;9.754;2022-10-16T03:29:41;4.65;;;2.90;;
22965;SDS011;11649;48.090;9.754;2022-10-16T03:32:09;4.75;;;2.90;;
22965;SDS011;11649;48.090;9.754;2022-10-16T03:34:36;23.40;;;3.97;;
22965;SDS011;11649;48.090;9.754;2022-10-16T03:37:02;10.90;;;3.13;;
22965;SDS011;11649;48.090;9.754;2022-10-16T03:39:30;26.73;;;4.00;;
22965;SDS011;11649;48.090;9.754;2022-10-16T03:41:56;6.35;;;2.50;;
22965;SDS011;11649;48.090;9.754;2022-10-16T03:44:23;8.32;;;3.13;;
22965;SDS011;11649;48.090;9.754;2022-10-16T03:46:50;4.18;;;2.70;;
22965;SDS011;11649;48.090;9.754;2022-10-16T03:49:17;5.00;;;2.90;;
22965;SDS011;11649;48.090;9.754;2022-10-16T03:51:43;3.40;;;2.53;;
22965;SDS011;11649;48.090;9.754;2022-10-16T03:54:10;5.00;;;2.83;;
22965;SDS011;11649;48.090;9.754;2022-10-16T03:56:37;9.00;;;2.63;;
22965;SDS011;11649;48.090;9.754;2022-10-16T03:59:04;3.47;;;2.60;;
22965;SDS011;11649;48.090;9.754;2022-10-16T04:01:31;6.68;;;2.70;;
22965;SDS011;11649;48.090;9.754;2022-10-16T04:03:58;4.75;;;2.85;;
22965;SDS011;11649;48.090;9.754;2022-10-16T04:06:24;14.43;;;3.72;;
22965;SDS011;11649;48.090;9.754;2022-10-16T04:08:51;6.65;;;3.45;;
22965;SDS011;11649;48.090;9.754;2022-10-16T04:11:18;3.95;;;2.53;;
22965;SDS011;11649;48.090;9.754;2022-10-16T04:13:45;2.92;;;2.58;;
22965;SDS011;11649;48.090;9.754;2022-10-16T04:16:12;10.65;;;2.97;;
22965;SDS011;11649;48.090;9.754;2022-10-16T04:18:38;13.02;;;2.83;;
22965;SDS011;11649;48.090;9.754;2022-10-16T04:21:05;3.40;;;2.80;;
22965;SDS011;11649;48.090;9.754;2022-10-16T04:23:32;5.95;;;3.60;;
22965;SDS011;11649;48.090;9.754;2022-10-16T04:25:59;7.43;;;4.10;;
22965;SDS011;11649;48.090;9.754;2022-10-16T04:28:26;6.97;;;5.57;;
22965;SDS011;11649;48.090;9.754;2022-10-16T04:30:53;13.73;;;10.20;;
22965;SDS011;11649;48.090;9.754;2022-10-16T04:33:20;7.93;;;3.97;;
22965;SDS011;11649;48.090;9.754;2022-10-16T04:35:47;9.35;;;4.15;;
22965;SDS011;11649;48.090;9.754;2022-10-16T04:38:14;9.50;;;5.85;;
22965;SDS011;11649;48.090;9.754;2022-10-16T04:40:41;8.50;;;6.63;;
22965;SDS011;11649;48.090;9.754;2022-10-16T04:43:08;8.43;;;5.43;;
22965;SDS011;11649;48.090;9.754;2022-10-16T04:45:35;7.55;;;4.70;;
22965;SDS011;11649;48.090;9.754;2022-10-16T04:48:02;8.68;;;5.07;;
22965;SDS011;11649;48.090;9.754;2022-10-16T04:50:29;12.25;;;8.43;;
22965;SDS011;11649;48.090;9.754;2022-10-16T04:52:56;12.25;;;8.65;;
22965;SDS011;11649;48.090;9.754;2022-10-16T04:55:22;9.38;;;6.22;;
22965;SDS011;11649;48.090;9.754;2022-10-16T04:57:49;5.78;;;4.70;;
22965;SDS011;11649;48.090;9.754;2022-10-16T05:00:16;6.57;;;3.47;;
22965;SDS011;11649;48.090;9.754;2022-10-16T05:02:43;10.50;;;5.40;;
22965;SDS011;11649;48.090;9.754;2022-10-16T05:05:10;6.43;;;5.28;;
22965;SDS011;11649;48.090;9.754;2022-10-16T05:07:37;5.85;;;4.50;;
22965;SDS011;11649;48.090;9.754;2022-10-16T05:10:04;15.90;;;5.30;;
22965;SDS011;11649;48.090;9.754;2022-10-16T05:12:32;12.95;;;4.57;;
22965;SDS011;11649;48.090;9.754;2022-10-16T05:14:59;5.93;;;3.65;;
22965;SDS011;11649;48.090;9.754;2022-10-16T05:17:26;5.97;;;3.88;;
22965;SDS011;11649;48.090;9.754;2022-10-16T05:19:53;6.53;;;3.67;;
22965;SDS011;11649;48.090;9.754;2022-10-16T05:22:20;4.22;;;3.55;;
22965;SDS011;11649;48.090;9.754;2022-10-16T05:24:47;7.95;;;3.90;;
22965;SDS011;11649;48.090;9.754;2022-10-16T05:27:14;5.72;;;3.75;;
22965;SDS011;11649;48.090;9.754;2022-10-16T05:29:45;8.50;;;3.60;;
22965;SDS011;11649;48.090;9.754;2022-10-16T05:32:13;8.00;;;3.58;;
22965;SDS011;11649;48.090;9.754;2022-10-16T05:34:41;15.85;;;3.72;;
22965;SDS011;11649;48.090;9.754;2022-10-16T05:37:08;10.90;;;4.20;;
22965;SDS011;11649;48.090;9.754;2022-10-16T05:39:35;5.95;;;3.53;;
22965;SDS011;11649;48.090;9.754;2022-10-16T05:42:03;6.50;;;3.40;;
22965;SDS011;11649;48.090;9.754;2022-10-16T05:44:31;5.20;;;3.08;;
22965;SDS011;11649;48.090;9.754;2022-10-16T05:47:02;8.13;;;3.28;;
22965;SDS011;11649;48.090;9.754;2022-10-16T05:49:29;5.53;;;3.08;;
22965;SDS011;11649;48.090;9.754;2022-10-16T05:51:56;5.07;;;3.00;;
22965;SDS011;11649;48.090;9.754;2022-10-16T05:54:23;4.10;;;2.92;;
22965;SDS011;11649;48.090;9.754;2022-10-16T05:56:49;4.07;;;3.00;;
22965;SDS011;11649;48.090;9.754;2022-10-16T05:59:16;7.85;;;3.03;;
22965;SDS011;11649;48.090;9.754;2022-10-16T06:01:43;6.65;;;3.20;;
22965;SDS011;11649;48.090;9.754;2022-10-16T06:04:10;19.88;;;3.50;;
22965;SDS011;11649;48.090;9.754;2022-10-16T06:06:42;7.90;;;2.80;;
22965;SDS011;11649;48.090;9.754;2022-10-16T06:09:08;5.90;;;3.03;;
22965;SDS011;11649;48.090;9.754;2022-10-16T06:11:35;5.03;;;3.03;;
22965;SDS011;11649;48.090;9.754;2022-10-16T06:14:02;9.48;;;3.00;;
22965;SDS011;11649;48.090;9.754;2022-10-16T06:16:36;17.20;;;3.28;;
22965;SDS011;11649;48.090;9.754;2022-10-16T06:19:03;12.27;;;2.97;;
22965;SDS011;11649;48.090;9.754;2022-10-16T06:21:32;13.07;;;7.40;;
22965;SDS011;11649;48.090;9.754;2022-10-16T06:23:59;7.13;;;4.80;;
22965;SDS011;11649;48.090;9.754;2022-10-16T06:26:27;5.43;;;3.63;;
22965;SDS011;11649;48.090;9.754;2022-10-16T06:28:55;15.38;;;3.90;;
22965;SDS011;11649;48.090;9.754;2022-10-16T06:31:23;17.50;;;4.47;;
22965;SDS011;11649;48.090;9.754;2022-10-16T06:33:57;3.72;;;2.88;;
22965;SDS011;11649;48.090;9.754;2022-10-16T06:36:24;13.60;;;3.83;;
22965;SDS011;11649;48.090;9.754;2022-10-16T06:38:52;9.52;;;3.80;;
22965;SDS011;11649;48.090;9.754;2022-10-16T06:41:20;7.30;;;6.30;;
22965;SDS011;11649;48.090;9.754;2022-10-16T06:43:47;9.75;;;8.70;;
22965;SDS011;11649;48.090;9.754;2022-10-16T06:46:15;10.13;;;7.20;;
22965;SDS011;11649;48.090;9.754;2022-10-16T06:48:44;7.80;;;6.50;;
22965;SDS011;11649;48.090;9.754;2022-10-16T06:51:12;8.60;;;7.40;;
22965;SDS011;11649;48.090;9.754;2022-10-16T06:53:45;11.48;;;8.48;;
22965;SDS011;11649;48.090;9.754;2022-10-16T06:56:32;17.30;;;7.90;;
22965;SDS011;11649;48.090;9.754;2022-10-16T06:58:59;15.80;;;10.32;;
22965;SDS011;11649;48.090;9.754;2022-10-16T07:01:27;16.20;;;11.52;;
22965;SDS011;11649;48.090;9.754;2022-10-16T07:03:54;16.42;;;11.60;;
22965;SDS011;11649;48.090;9.754;2022-10-16T07:06:21;17.98;;;12.93;;
22965;SDS011;11649;48.090;9.754;2022-10-16T07:08:50;14.15;;;10.50;;
22965;SDS011;11649;48.090;9.754;2022-10-16T07:11:21;11.57;;;8.23;;
22965;SDS011;11649;48.090;9.754;2022-10-16T07:13:49;8.10;;;6.43;;
22965;SDS011;11649;48.090;9.754;2022-10-16T07:16:25;14.48;;;10.35;;
22965;SDS011;11649;48.090;9.754;2022-10-16T07:18:57;14.95;;;10.20;;
22965;SDS011;11649;48.090;9.754;2022-10-16T07:21:30;19.38;;;13.18;;
22965;SDS011;11649;48.090;9.754;2022-10-16T07:24:02;37.65;;;18.17;;
22965;SDS011;11649;48.090;9.754;2022-10-16T07:26:32;72.72;;;33.22;;
22965;SDS011;11649;48.090;9.754;2022-10-16T07:29:00;42.58;;;22.73;;
22965;SDS011;11649;48.090;9.754;2022-10-16T07:31:27;4.60;;;3.50;;
22965;SDS011;11649;48.090;9.754;2022-10-16T07:33:54;5.80;;;3.00;;
22965;SDS011;11649;48.090;9.754;2022-10-16T07:36:23;5.90;;;3.15;;
22965;SDS011;11649;48.090;9.754;2022-10-16T07:38:50;6.82;;;3.08;;
22965;SDS011;11649;48.090;9.754;2022-10-16T07:41:22;5.72;;;4.00;;
22965;SDS011;11649;48.090;9.754;2022-10-16T07:43:49;10.20;;;6.10;;
22965;SDS011;11649;48.090;9.754;2022-10-16T07:46:19;9.13;;;4.88;;
22965;SDS011;11649;48.090;9.754;2022-10-16T07:48:46;6.68;;;3.70;;
22965;SDS011;11649;48.090;9.754;2022-10-16T07:51:15;5.13;;;2.42;;
22965;SDS011;11649;48.090;9.754;2022-10-16T07:53:43;6.22;;;2.22;;
22965;SDS011;11649;48.090;9.754;2022-10-16T07:56:10;5.82;;;1.77;;
22965;SDS011;11649;48.090;9.754;2022-10-16T07:58:38;3.38;;;1.52;;
22965;SDS011;11649;48.090;9.754;2022-10-16T08:01:06;2.65;;;1.73;;
22965;SDS011;11649;48.090;9.754;2022-10-16T08:03:35;2.53;;;1.70;;
22965;SDS011;11649;48.090;9.754;2022-10-16T08:06:02;2.45;;;1.77;;
22965;SDS011;11649;48.090;9.754;2022-10-16T08:08:30;3.65;;;1.83;;
22965;SDS011;11649;48.090;9.754;2022-10-16T08:10:57;3.15;;;1.70;;
22965;SDS011;11649;48.090;9.754;2022-10-16T08:13:25;3.33;;;1.80;;
22965;SDS011;11649;48.090;9.754;2022-10-16T08:15:53;6.55;;;1.90;;
22965;SDS011;11649;48.090;9.754;2022-10-16T08:18:21;4.35;;;2.42;;
22965;SDS011;11649;48.090;9.754;2022-10-16T08:20:47;2.85;;;2.25;;
22965;SDS011;11649;48.090;9.754;2022-10-16T08:23:20;3.55;;;1.92;;
22965;SDS011;11649;48.090;9.754;2022-10-16T08:25:47;5.30;;;2.13;;
22965;SDS011;11649;48.090;9.754;2022-10-16T08:28:14;3.50;;;1.92;;
22965;SDS011;11649;48.090;9.754;2022-10-16T08:30:43;8.30;;;1.75;;
22965;SDS011;11649;48.090;9.754;2022-10-16T08:33:09;2.65;;;1.70;;
22965;SDS011;11649;48.090;9.754;2022-10-16T08:35:37;3.25;;;1.63;;
22965;SDS011;11649;48.090;9.754;2022-10-16T08:38:04;4.72;;;1.92;;
22965;SDS011;11649;48.090;9.754;2022-10-16T08:40:33;3.92;;;1.73;;
22965;SDS011;11649;48.090;9.754;2022-10-16T08:48:56;4.15;;;1.67;;
22965;SDS011;11649;48.090;9.754;2022-10-16T08:51:26;4.45;;;1.92;;
22965;SDS011;11649;48.090;9.754;2022-10-16T08:53:56;5.50;;;2.25;;
22965;SDS011;11649;48.090;9.754;2022-10-16T08:56:25;7.82;;;1.73;;
22965;SDS011;11649;48.090;9.754;2022-10-16T08:58:53;1.80;;;1.60;;
22965;SDS011;11649;48.090;9.754;2022-10-16T09:01:49;4.85;;;2.13;;
22965;SDS011;11649;48.090;9.754;2022-10-16T09:09:50;4.53;;;1.50;;
22965;SDS011;11649;48.090;9.754;2022-10-16T09:12:33;5.78;;;2.33;;
22965;SDS011;11649;48.090;9.754;2022-10-16T09:18:22;6.18;;;2.47;;
22965;SDS011;11649;48.090;9.754;2022-10-16T09:23:28;5.00;;;2.03;;
22965;SDS011;11649;48.090;9.754;2022-10-16T09:25:57;3.03;;;2.00;;
22965;SDS011;11649;48.090;9.754;2022-10-16T09:28:25;7.32;;;1.98;;
22965;SDS011;11649;48.090;9.754;2022-10-16T09:30:52;7.78;;;1.80;;
22965;SDS011;11649;48.090;9.754;2022-10-16T09:33:20;7.03;;;1.73;;
22965;SDS011;11649;48.090;9.754;2022-10-16T09:35:52;3.22;;;1.67;;
22965;SDS011;11649;48.090;9.754;2022-10-16T09:38:30;3.10;;;1.40;;
22965;SDS011;11649;48.090;9.754;2022-10-16T09:41:03;1.65;;;1.40;;
22965;SDS011;11649;48.090;9.754;2022-10-16T09:46:29;1.83;;;1.50;;
22965;SDS011;11649;48.090;9.754;2022-10-16T09:49:05;2.75;;;1.10;;
22965;SDS011;11649;48.090;9.754;2022-10-16T09:52:06;3.25;;;1.77;;
22965;SDS011;11649;48.090;9.754;2022-10-16T09:55:15;3.28;;;1.60;;
22965;SDS011;11649;48.090;9.754;2022-10-16T09:57:51;2.97;;;1.58;;
22965;SDS011;11649;48.090;9.754;2022-10-16T10:00:19;3.70;;;1.40;;
22965;SDS011;11649;48.090;9.754;2022-10-16T10:02:47;5.07;;;1.60;;
22965;SDS011;11649;48.090;9.754;2022-10-16T10:05:32;4.53;;;1.70;;
22965;SDS011;11649;48.090;9.754;2022-10-16T10:10:30;2.85;;;1.27;;
22965;SDS011;11649;48.090;9.754;2022-10-16T10:12:58;3.53;;;1.40;;
22965;SDS011;11649;48.090;9.754;2022-10-16T10:15:25;1.83;;;1.30;;
22965;SDS011;11649;48.090;9.754;2022-10-16T10:17:59;5.13;;;1.50;;
22965;SDS011;11649;48.090;9.754;2022-10-16T10:20:28;6.28;;;1.40;;
22965;SDS011;11649;48.090;9.754;2022-10-16T10:23:00;3.97;;;1.30;;
22965;SDS011;11649;48.090;9.754;2022-10-16T10:28:54;3.40;;;1.40;;
22965;SDS011;11649;48.090;9.754;2022-10-16T10:37:17;1.55;;;1.27;;
22965;SDS011;11649;48.090;9.754;2022-10-16T10:42:50;1.20;;;0.93;;
22965;SDS011;11649;48.090;9.754;2022-10-16T10:45:26;2.00;;;1.20;;
22965;SDS011;11649;48.090;9.754;2022-10-16T10:50:49;1.70;;;1.27;;
22965;SDS011;11649;48.090;9.754;2022-10-16T10:53:45;2.42;;;1.13;;
22965;SDS011;11649;48.090;9.754;2022-10-16T11:07:30;1.20;;;0.90;;
22965;SDS011;11649;48.090;9.754;2022-10-16T11:10:07;1.70;;;1.10;;
22965;SDS011;11649;48.090;9.754;2022-10-16T11:12:42;2.25;;;1.00;;
22965;SDS011;11649;48.090;9.754;2022-10-16T11:17:53;2.35;;;1.02;;
22965;SDS011;11649;48.090;9.754;2022-10-16T11:20:36;3.80;;;1.00;;
22965;SDS011;11649;48.090;9.754;2022-10-16T11:23:15;2.93;;;1.10;;
22965;SDS011;11649;48.090;9.754;2022-10-16T11:25:47;1.70;;;1.00;;
22965;SDS011;11649;48.090;9.754;2022-10-16T11:28:19;1.60;;;0.98;;
22965;SDS011;11649;48.090;9.754;2022-10-16T11:31:03;1.10;;;0.93;;
22965;SDS011;11649;48.090;9.754;2022-10-16T11:36:38;2.03;;;1.10;;
22965;SDS011;11649;48.090;9.754;2022-10-16T11:39:11;5.00;;;0.90;;
22965;SDS011;11649;48.090;9.754;2022-10-16T11:44:48;1.42;;;1.10;;
22965;SDS011;11649;48.090;9.754;2022-10-16T11:50:39;13.50;;;1.23;;
22965;SDS011;11649;48.090;9.754;2022-10-16T11:55:51;3.47;;;1.20;;
22965;SDS011;11649;48.090;9.754;2022-10-16T11:58:35;3.55;;;1.48;;
22965;SDS011;11649;48.090;9.754;2022-10-16T12:01:22;2.45;;;1.00;;
22965;SDS011;11649;48.090;9.754;2022-10-16T12:09:26;2.65;;;1.00;;
22965;SDS011;11649;48.090;9.754;2022-10-16T12:11:55;4.13;;;1.10;;
22965;SDS011;11649;48.090;9.754;2022-10-16T12:17:03;2.72;;;1.10;;
22965;SDS011;11649;48.090;9.754;2022-10-16T12:19:59;1.65;;;0.90;;
22965;SDS011;11649;48.090;9.754;2022-10-16T12:22:42;0.90;;;0.82;;
22965;SDS011;11649;48.090;9.754;2022-10-16T12:25:21;5.47;;;0.82;;
22965;SDS011;11649;48.090;9.754;2022-10-16T12:27:55;4.75;;;1.05;;
22965;SDS011;11649;48.090;9.754;2022-10-16T12:30:23;3.50;;;1.00;;
22965;SDS011;11649;48.090;9.754;2022-10-16T12:32:56;2.97;;;0.90;;
22965;SDS011;11649;48.090;9.754;2022-10-16T12:35:51;1.73;;;1.05;;
22965;SDS011;11649;48.090;9.754;2022-10-16T12:38:19;1.13;;;0.70;;
22965;SDS011;11649;48.090;9.754;2022-10-16T12:40:55;4.07;;;0.90;;
22965;SDS011;11649;48.090;9.754;2022-10-16T12:43:34;2.05;;;1.00;;
22965;SDS011;11649;48.090;9.754;2022-10-16T12:48:46;1.60;;;0.95;;
22965;SDS011;11649;48.090;9.754;2022-10-16T12:53:58;3.42;;;0.95;;
22965;SDS011;11649;48.090;9.754;2022-10-16T13:07:29;1.50;;;0.88;;
22965;SDS011;11649;48.090;9.754;2022-10-16T13:16:28;1.92;;;1.00;;
22965;SDS011;11649;48.090;9.754;2022-10-16T13:19:11;2.05;;;0.95;;
22965;SDS011;11649;48.090;9.754;2022-10-16T13:28:03;2.58;;;0.82;;
22965;SDS011;11649;48.090;9.754;2022-10-16T13:30:51;3.38;;;1.00;;
22965;SDS011;11649;48.090;9.754;2022-10-16T13:33:33;1.25;;;0.75;;
22965;SDS011;11649;48.090;9.754;2022-10-16T13:36:06;1.38;;;0.82;;
22965;SDS011;11649;48.090;9.754;2022-10-16T13:38:33;1.00;;;0.88;;
22965;SDS011;11649;48.090;9.754;2022-10-16T13:46:02;1.20;;;0.90;;
22965;SDS011;11649;48.090;9.754;2022-10-16T13:48:30;2.08;;;0.93;;
22965;SDS011;11649;48.090;9.754;2022-10-16T13:51:02;5.97;;;0.95;;
22965;SDS011;11649;48.090;9.754;2022-10-16T13:53:32;8.57;;;0.80;;
22965;SDS011;11649;48.090;9.754;2022-10-16T13:56:00;0.95;;;0.75;;
22965;SDS011;11649;48.090;9.754;2022-10-16T13:58:29;3.35;;;1.23;;
22965;SDS011;11649;48.090;9.754;2022-10-16T14:00:57;0.70;;;0.70;;
22965;SDS011;11649;48.090;9.754;2022-10-16T14:03:27;3.30;;;1.00;;
22965;SDS011;11649;48.090;9.754;2022-10-16T14:06:00;1.55;;;0.90;;
22965;SDS011;11649;48.090;9.754;2022-10-16T14:08:29;1.05;;;0.90;;
22965;SDS011;11649;48.090;9.754;2022-10-16T14:10:57;4.15;;;1.10;;
22965;SDS011;11649;48.090;9.754;2022-10-16T14:13:29;1.25;;;0.90;;
22965;SDS011;11649;48.090;9.754;2022-10-16T14:15:56;3.58;;;0.90;;
22965;SDS011;11649;48.090;9.754;2022-10-16T14:18:32;1.88;;;0.93;;
22965;SDS011;11649;48.090;9.754;2022-10-16T14:21:04;3.70;;;0.90;;
22965;SDS011;11649;48.090;9.754;2022-10-16T14:23:40;3.97;;;0.80;;
22965;SDS011;11649;48.090;9.754;2022-10-16T14:28:39;2.65;;;0.90;;
22965;SDS011;11649;48.090;9.754;2022-10-16T14:33:54;2.47;;;0.90;;
22965;SDS011;11649;48.090;9.754;2022-10-16T14:36:21;4.00;;;0.80;;
22965;SDS011;11649;48.090;9.754;2022-10-16T14:38:50;3.53;;;0.93;;
22965;SDS011;11649;48.090;9.754;2022-10-16T14:41:31;2.15;;;0.80;;
22965;SDS011;11649;48.090;9.754;2022-10-16T14:44:09;1.15;;;0.70;;
22965;SDS011;11649;48.090;9.754;2022-10-16T14:46:38;1.75;;;0.80;;
22965;SDS011;11649;48.090;9.754;2022-10-16T14:51:38;7.35;;;1.00;;
22965;SDS011;11649;48.090;9.754;2022-10-16T14:54:13;5.47;;;0.90;;
22965;SDS011;11649;48.090;9.754;2022-10-16T14:56:51;4.47;;;0.88;;
22965;SDS011;11649;48.090;9.754;2022-10-16T14:59:37;2.55;;;0.98;;
22965;SDS011;11649;48.090;9.754;2022-10-16T15:02:27;2.55;;;0.88;;
22965;SDS011;11649;48.090;9.754;2022-10-16T15:05:04;6.18;;;1.00;;
22965;SDS011;11649;48.090;9.754;2022-10-16T15:07:39;2.33;;;0.90;;
22965;SDS011;11649;48.090;9.754;2022-10-16T15:10:06;5.93;;;1.00;;
22965;SDS011;11649;48.090;9.754;2022-10-16T15:12:33;0.95;;;0.80;;
22965;SDS011;11649;48.090;9.754;2022-10-16T15:15:00;2.78;;;0.98;;
22965;SDS011;11649;48.090;9.754;2022-10-16T15:17:27;1.83;;;0.90;;
22965;SDS011;11649;48.090;9.754;2022-10-16T15:19:54;2.58;;;0.93;;
22965;SDS011;11649;48.090;9.754;2022-10-16T15:22:21;3.55;;;1.08;;
22965;SDS011;11649;48.090;9.754;2022-10-16T15:24:49;1.63;;;1.00;;
22965;SDS011;11649;48.090;9.754;2022-10-16T15:27:16;7.18;;;1.13;;
22965;SDS011;11649;48.090;9.754;2022-10-16T15:29:42;2.22;;;0.90;;
22965;SDS011;11649;48.090;9.754;2022-10-16T15:32:10;3.03;;;1.20;;
22965;SDS011;11649;48.090;9.754;2022-10-16T15:34:37;5.05;;;1.10;;
22965;SDS011;11649;48.090;9.754;2022-10-16T15:37:04;7.20;;;1.10;;
22965;SDS011;11649;48.090;9.754;2022-10-16T15:39:31;4.43;;;1.23;;
22965;SDS011;11649;48.090;9.754;2022-10-16T15:42:00;3.38;;;1.00;;
22965;SDS011;11649;48.090;9.754;2022-10-16T15:44:27;5.07;;;0.95;;
22965;SDS011;11649;48.090;9.754;2022-10-16T15:46:56;8.15;;;1.45;;
22965;SDS011;11649;48.090;9.754;2022-10-16T15:49:23;4.85;;;1.38;;
22965;SDS011;11649;48.090;9.754;2022-10-16T15:51:50;9.77;;;1.40;;
22965;SDS011;11649;48.090;9.754;2022-10-16T15:54:19;7.13;;;1.50;;
22965;SDS011;11649;48.090;9.754;2022-10-16T15:56:47;5.28;;;1.45;;
22965;SDS011;11649;48.090;9.754;2022-10-16T15:59:14;8.95;;;1.40;;
22965;SDS011;11649;48.090;9.754;2022-10-16T16:01:41;10.18;;;1.88;;
22965;SDS011;11649;48.090;9.754;2022-10-16T16:04:08;2.08;;;1.00;;
22965;SDS011;11649;48.090;9.754;2022-10-16T16:06:45;1.10;;;1.00;;
22965;SDS011;11649;48.090;9.754;2022-10-16T16:09:13;3.58;;;1.50;;
22965;SDS011;11649;48.090;9.754;2022-10-16T16:11:40;6.88;;;1.40;;
22965;SDS011;11649;48.090;9.754;2022-10-16T16:14:10;6.20;;;1.30;;
22965;SDS011;11649;48.090;9.754;2022-10-16T16:16:39;6.65;;;1.52;;
22965;SDS011;11649;48.090;9.754;2022-10-16T16:19:07;9.85;;;1.65;;
22965;SDS011;11649;48.090;9.754;2022-10-16T16:21:37;11.50;;;1.77;;
22965;SDS011;11649;48.090;9.754;2022-10-16T16:24:04;14.07;;;1.63;;
22965;SDS011;11649;48.090;9.754;2022-10-16T16:26:34;8.57;;;1.40;;
22965;SDS011;11649;48.090;9.754;2022-10-16T16:29:04;5.97;;;1.70;;
22965;SDS011;11649;48.090;9.754;2022-10-16T16:31:31;3.42;;;1.70;;
22965;SDS011;11649;48.090;9.754;2022-10-16T16:33:59;5.25;;;1.50;;
22965;SDS011;11649;48.090;9.754;2022-10-16T16:36:26;5.03;;;1.30;;
22965;SDS011;11649;48.090;9.754;2022-10-16T16:38:53;4.95;;;1.50;;
22965;SDS011;11649;48.090;9.754;2022-10-16T16:41:21;3.17;;;1.40;;
22965;SDS011;11649;48.090;9.754;2022-10-16T16:43:51;13.27;;;2.03;;
22965;SDS011;11649;48.090;9.754;2022-10-16T16:46:19;9.02;;;1.70;;
22965;SDS011;11649;48.090;9.754;2022-10-16T16:48:46;13.75;;;2.17;;
22965;SDS011;11649;48.090;9.754;2022-10-16T16:51:16;4.22;;;1.60;;
22965;SDS011;11649;48.090;9.754;2022-10-16T16:53:46;6.70;;;1.60;;
22965;SDS011;11649;48.090;9.754;2022-10-16T16:56:16;5.97;;;1.50;;
22965;SDS011;11649;48.090;9.754;2022-10-16T16:58:44;2.58;;;1.60;;
22965;SDS011;11649;48.090;9.754;2022-10-16T17:01:12;7.00;;;1.80;;
22965;SDS011;11649;48.090;9.754;2022-10-16T17:03:48;13.05;;;2.00;;
22965;SDS011;11649;48.090;9.754;2022-10-16T17:06:17;12.70;;;2.00;;
22965;SDS011;11649;48.090;9.754;2022-10-16T17:08:46;23.50;;;3.08;;
22965;SDS011;11649;48.090;9.754;2022-10-16T17:11:15;9.27;;;1.77;;
22965;SDS011;11649;48.090;9.754;2022-10-16T17:13:43;5.15;;;1.67;;
22965;SDS011;11649;48.090;9.754;2022-10-16T17:16:11;8.82;;;1.73;;